MST,Max TemperatureF,Mean TemperatureF,Min TemperatureF,Max Dew PointF,MeanDew PointF,Min DewpointF,Max Humidity, Mean Humidity, Min Humidity, Max Sea Level PressureIn, Mean Sea Level PressureIn, Min Sea Level PressureIn, Max VisibilityMiles, Mean VisibilityMiles, Min VisibilityMiles, Max Wind SpeedMPH, Mean Wind SpeedMPH, Max Gust SpeedMPH,PrecipitationIn, CloudCover, Events, WindDirDegrees
2012-12-1,72,56,39,25,19,12,47,27,13,30.21,30.15,30.10,10,10,10,13,6,17,0.00,0,,271
2012-12-2,72,52,32,22,17,10,41,25,14,30.21,30.14,30.07,10,10,10,13,5,17,0.00,0,,245
2012-12-3,71,56,40,34,25,16,51,30,19,30.19,30.11,30.07,10,10,10,23,13,29,0.04,0,Thunderstorm,263
2012-12-4,66,53,40,34,27,19,57,38,18,30.38,30.31,30.20,10,10,10,17,7,20,0.00,0,,350
2012-12-5,65,49,33,26,21,15,51,35,22,30.32,30.20,30.07,10,10,10,9,3,,0.00,0,,208
2012-12-6,72,56,40,28,22,10,55,32,15,30.07,29.99,29.91,10,10,10,13,7,16,0.00,0,,253
2012-12-7,68,56,44,31,24,12,49,31,23,29.99,29.95,29.90,10,10,10,21,11,32,0.00,0,,268
2012-12-8,64,50,36,31,26,22,62,39,20,30.02,29.96,29.90,10,10,10,26,10,32,0.00,0,,254
2012-12-9,62,50,36,28,22,7,60,37,19,30.17,29.98,29.89,10,10,4,33,18,40,0.00,1,,278
2012-12-10,46,34,22,9,0,-3,36,24,15,30.19,30.11,30.02,10,10,10,17,8,21,0.00,0,,330
2012-12-11,51,37,23,9,4,-4,36,24,16,30.14,30.09,30.03,10,10,10,15,7,22,0.00,0,,11
2012-12-12,58,39,20,15,7,-1,41,28,15,30.18,30.12,30.07,10,10,10,9,3,16,0.00,0,,162
2012-12-13,61,43,25,24,15,7,46,32,19,30.14,30.06,29.92,10,10,10,9,3,,0.00,1,,134
2012-12-14,52,44,36,47,33,24,95,67,33,30.07,29.92,29.75,10,9,2,34,11,48,0.15,5,Rain-Thunderstorm,235
2012-12-15,50,41,32,35,32,29,88,70,49,30.07,30.00,29.94,10,10,10,18,5,25,0.00,3,,233
2012-12-16,49,42,34,36,32,27,84,68,45,30.11,30.02,29.97,10,10,10,30,11,38,0.00,3,,259
2012-12-17,55,43,31,31,29,27,87,65,34,30.15,30.08,30.01,10,10,10,23,11,28,0.00,0,,261
2012-12-18,60,46,32,33,30,25,87,57,31,30.02,29.91,29.80,10,10,10,20,10,25,0.00,0,,223
2012-12-19,48,38,28,37,19,8,67,43,23,30.30,29.94,29.74,10,8,1,48,16,59,0.00,2,,272
2012-12-20,45,33,21,9,5,1,53,35,17,30.49,30.39,30.30,10,10,10,13,8,17,0.00,0,,11
2012-12-21,52,38,24,8,5,2,42,29,14,30.40,30.29,30.20,10,10,10,9,4,,0.00,0,,6
2012-12-22,57,44,32,15,10,5,41,29,15,30.25,30.18,30.12,10,10,10,10,5,,0.00,1,,285
2012-12-23,61,46,30,28,21,14,54,39,24,30.19,30.11,30.06,10,10,10,12,4,16,0.00,0,,250
2012-12-24,56,44,32,36,24,18,71,47,23,30.07,29.92,29.76,10,10,10,32,9,45,0.00,1,Rain,255
2012-12-25,48,42,34,28,17,5,74,39,18,30.10,30.01,29.86,10,10,10,21,9,25,0.00,2,,345
2012-12-26,49,40,32,17,15,14,50,40,27,30.08,29.96,29.83,10,10,10,12,7,,0.00,0,,155
2012-12-27,51,39,27,23,18,14,61,46,27,29.93,29.83,29.75,10,10,10,30,11,37,0.00,1,,266
2012-12-28,45,34,22,21,17,12,79,53,26,30.21,30.07,29.93,10,10,10,10,6,,0.00,0,,293
2012-12-29,49,34,19,14,12,9,69,40,21,30.31,30.20,30.10,10,10,10,12,6,17,0.00,0,,81
2012-12-30,47,39,31,35,19,13,86,44,30,30.09,29.97,29.86,10,10,10,14,4,,0.02,5,Rain,130
2012-12-31,43,36,30,35,30,24,94,77,56,30.12,30.01,29.90,10,10,4,28,13,37,0.02,4,Rain-Snow,256